createdAt,value
2023-01-29T00:01:12.559Z,-2.31
2023-01-29T00:03:41.488Z,-2.34
2023-01-29T00:06:12.743Z,-2.34
2023-01-29T00:08:41.229Z,-2.36
2023-01-29T00:11:12.979Z,-2.35
2023-01-29T00:13:41.520Z,-2.35
2023-01-29T00:16:11.097Z,-2.35
2023-01-29T00:18:40.241Z,-2.36
2023-01-29T00:21:12.037Z,-2.36
2023-01-29T00:23:40.512Z,-2.36
2023-01-29T00:26:09.338Z,-2.35
2023-01-29T00:28:39.934Z,-2.36
2023-01-29T00:31:09.203Z,-2.35
2023-01-29T00:33:37.900Z,-2.36
2023-01-29T00:36:07.619Z,-2.35
2023-01-29T00:38:38.554Z,-2.35
2023-01-29T00:41:25.383Z,-2.34
2023-01-29T00:44:11.615Z,-2.33
2023-01-29T00:46:40.929Z,-2.32
2023-01-29T00:49:11.831Z,-2.34
2023-01-29T00:51:41.034Z,-2.35
2023-01-29T00:54:10.953Z,-2.34
2023-01-29T00:56:39.686Z,-2.36
2023-01-29T00:59:08.127Z,-2.36
2023-01-29T01:01:54.172Z,-2.36
2023-01-29T01:04:22.665Z,-2.39
2023-01-29T01:06:51.106Z,-2.38
2023-01-29T01:09:38.472Z,-2.39
2023-01-29T01:12:07.432Z,-2.40
2023-01-29T01:14:36.169Z,-2.40
2023-01-29T01:17:05.083Z,-2.39
2023-01-29T01:19:35.100Z,-2.36
2023-01-29T01:22:05.035Z,-2.34
2023-01-29T01:24:34.863Z,-2.32
2023-01-29T01:27:03.301Z,-2.32
2023-01-29T01:29:31.816Z,-2.32
2023-01-29T01:32:00.403Z,-2.31
2023-01-29T01:34:31.991Z,-2.32
2023-01-29T01:37:00.502Z,-2.33
2023-01-29T01:39:29.004Z,-2.34
2023-01-29T01:41:59.500Z,-2.36
2023-01-29T01:44:54.868Z,-2.39
2023-01-29T01:47:31.956Z,-2.40
2023-01-29T01:50:08.324Z,-2.43
2023-01-29T01:52:43.975Z,-2.41
2023-01-29T01:55:16.545Z,-2.39
2023-01-29T01:57:49.341Z,-2.36
2023-01-29T02:00:20.598Z,-2.35
2023-01-29T02:03:07.472Z,-2.35
2023-01-29T02:05:56.051Z,-2.34
2023-01-29T02:08:50.607Z,-2.36
2023-01-29T02:11:21.246Z,-2.38
2023-01-29T02:13:53.731Z,-2.40
2023-01-29T02:16:27.458Z,-2.41
2023-01-29T02:18:57.782Z,-2.44
2023-01-29T02:21:51.809Z,-2.46
2023-01-29T02:24:55.212Z,-2.48
2023-01-29T02:27:32.931Z,-2.47
2023-01-29T02:30:06.613Z,-2.48
2023-01-29T02:32:41.756Z,-2.50
2023-01-29T02:35:31.946Z,-2.51
2023-01-29T02:38:12.911Z,-2.52
2023-01-29T02:40:46.622Z,-2.54
2023-01-29T02:43:31.797Z,-2.56
2023-01-29T02:46:11.986Z,-2.57
2023-01-29T02:48:47.147Z,-2.58
2023-01-29T02:51:21.262Z,-2.62
2023-01-29T02:53:55.165Z,-2.63
2023-01-29T02:56:30.201Z,-2.63
2023-01-29T02:59:05.088Z,-2.66
2023-01-29T03:01:40.086Z,-2.66
2023-01-29T03:04:13.697Z,-2.67
2023-01-29T03:06:46.546Z,-2.69
2023-01-29T03:09:20.597Z,-2.71
2023-01-29T03:11:54.208Z,-2.72
2023-01-29T03:14:51.376Z,-2.73
2023-01-29T03:17:23.557Z,-2.76
2023-01-29T03:19:52.298Z,-2.76
2023-01-29T03:22:25.178Z,-2.77
2023-01-29T03:25:15.388Z,-2.77
2023-01-29T03:28:09.021Z,-2.79
2023-01-29T03:31:05.702Z,-2.79
2023-01-29T03:34:24.125Z,-2.80
2023-01-29T03:36:56.788Z,-2.82
2023-01-29T03:39:28.442Z,-2.82
2023-01-29T03:42:03.813Z,-2.82
2023-01-29T03:44:37.243Z,-2.82
2023-01-29T03:47:16.697Z,-2.83
2023-01-29T03:49:59.481Z,-2.84
2023-01-29T03:52:41.418Z,-2.87
2023-01-29T03:55:16.471Z,-2.86
2023-01-29T03:57:57.430Z,-2.87
2023-01-29T04:00:31.735Z,-2.88
2023-01-29T04:03:13.895Z,-2.89
2023-01-29T04:05:50.781Z,-2.89
2023-01-29T04:08:32.045Z,-2.92
2023-01-29T04:11:05.749Z,-2.92
2023-01-29T04:13:36.446Z,-2.95
2023-01-29T04:16:09.917Z,-2.96
2023-01-29T04:19:06.942Z,-2.99
2023-01-29T04:21:41.724Z,-2.98
2023-01-29T04:24:14.925Z,-2.98
2023-01-29T04:27:01.624Z,-3.01
2023-01-29T04:29:44.694Z,-3.00
2023-01-29T04:32:21.012Z,-3.00
2023-01-29T04:35:02.008Z,-3.00
2023-01-29T04:37:41.241Z,-2.98
2023-01-29T04:40:21.691Z,-2.97
2023-01-29T04:42:59.371Z,-2.97
2023-01-29T04:45:35.419Z,-2.95
2023-01-29T04:48:17.613Z,-2.94
2023-01-29T04:50:57.243Z,-2.94
2023-01-29T04:53:36.308Z,-2.93
2023-01-29T04:56:12.156Z,-2.93
2023-01-29T04:58:43.479Z,-2.92
2023-01-29T05:01:15.554Z,-2.91
2023-01-29T05:03:49.260Z,-2.90
2023-01-29T05:06:21.163Z,-2.90
2023-01-29T05:08:53.188Z,-2.89
2023-01-29T05:11:21.969Z,-2.88
2023-01-29T05:13:50.987Z,-2.87
2023-01-29T05:16:25.073Z,-2.87
2023-01-29T05:18:54.614Z,-2.87
2023-01-29T05:21:24.123Z,-2.85
2023-01-29T05:27:07.007Z,-2.82
2023-01-29T05:29:35.812Z,-2.79
2023-01-29T05:32:04.912Z,-2.78
2023-01-29T05:34:34.228Z,-2.75
2023-01-29T05:37:02.993Z,-2.72
2023-01-29T05:39:34.636Z,-2.70
2023-01-29T05:42:06.929Z,-2.67
2023-01-29T05:44:37.459Z,-2.65
2023-01-29T05:47:06.679Z,-2.61
2023-01-29T05:49:36.724Z,-2.59
2023-01-29T05:52:06.461Z,-2.54
2023-01-29T05:54:34.960Z,-2.51
2023-01-29T05:57:05.115Z,-2.48
2023-01-29T05:59:34.406Z,-2.45
2023-01-29T06:02:03.618Z,-2.41
2023-01-29T06:04:32.103Z,-2.39
2023-01-29T06:07:01.204Z,-2.34
2023-01-29T06:09:29.891Z,-2.31
2023-01-29T06:11:58.291Z,-2.26
2023-01-29T06:14:28.376Z,-2.21
2023-01-29T06:17:01.169Z,-2.18
2023-01-29T06:19:31.782Z,-2.14
2023-01-29T06:22:00.574Z,-2.12
2023-01-29T06:24:31.924Z,-2.07
2023-01-29T06:27:00.431Z,-2.02
2023-01-29T06:29:32.726Z,-1.99
2023-01-29T06:32:01.276Z,-1.94
2023-01-29T06:34:33.081Z,-1.91
2023-01-29T06:37:03.622Z,-1.89
2023-01-29T06:39:35.233Z,-1.85
2023-01-29T06:42:03.829Z,-1.84
2023-01-29T06:44:33.737Z,-1.81
2023-01-29T06:47:02.463Z,-1.78
2023-01-29T06:49:30.907Z,-1.76
2023-01-29T06:51:59.323Z,-1.74
2023-01-29T06:54:29.744Z,-1.72
2023-01-29T06:56:58.131Z,-1.69
2023-01-29T06:59:26.625Z,-1.66
2023-01-29T07:01:59.470Z,-1.63
2023-01-29T07:04:27.949Z,-1.62
2023-01-29T07:06:59.401Z,-1.60
2023-01-29T07:09:30.839Z,-1.59
2023-01-29T07:11:59.251Z,-1.59
2023-01-29T07:14:31.711Z,-1.55
2023-01-29T07:17:01.554Z,-1.54
2023-01-29T07:19:32.048Z,-1.50
2023-01-29T07:22:02.332Z,-1.47
2023-01-29T07:24:31.219Z,-1.46
2023-01-29T07:27:00.032Z,-1.43
2023-01-29T07:29:28.618Z,-1.41
2023-01-29T07:31:57.195Z,-1.39
2023-01-29T07:34:28.808Z,-1.36
2023-01-29T07:36:57.817Z,-1.34
2023-01-29T07:39:26.236Z,-1.31
2023-01-29T07:41:54.797Z,-1.28
2023-01-29T07:44:24.803Z,-1.27
2023-01-29T07:46:56.193Z,-1.26
2023-01-29T07:49:31.580Z,-1.23
2023-01-29T07:52:00.166Z,-1.22
2023-01-29T07:54:28.744Z,-1.20
2023-01-29T07:57:00.228Z,-1.19
2023-01-29T07:59:28.656Z,-1.17
2023-01-29T08:01:57.312Z,-1.16
2023-01-29T08:04:30.981Z,-1.13
2023-01-29T08:07:07.331Z,-1.13
2023-01-29T08:09:36.140Z,-1.12
2023-01-29T08:12:04.872Z,-1.11
2023-01-29T08:14:33.332Z,-1.11
2023-01-29T08:17:01.950Z,-1.10
2023-01-29T08:19:36.107Z,-1.09
2023-01-29T08:22:12.087Z,-1.09
2023-01-29T08:24:53.491Z,-1.06
2023-01-29T08:27:28.304Z,-1.06
2023-01-29T08:30:00.169Z,-1.03
2023-01-29T08:32:29.049Z,-1.01
2023-01-29T08:35:02.465Z,-0.98
2023-01-29T08:37:33.514Z,-0.96
2023-01-29T08:40:02.302Z,-0.94
2023-01-29T08:42:31.148Z,-0.92
2023-01-29T08:44:59.551Z,-0.90
2023-01-29T08:47:28.742Z,-0.88
2023-01-29T08:50:00.515Z,-0.86
2023-01-29T08:52:28.936Z,-0.84
2023-01-29T08:54:59.256Z,-0.84
2023-01-29T08:57:33.058Z,-0.83
2023-01-29T09:00:01.461Z,-0.81
2023-01-29T09:02:30.135Z,-0.81
2023-01-29T09:04:58.664Z,-0.81
2023-01-29T09:07:27.792Z,-0.80
2023-01-29T09:09:56.386Z,-0.78
2023-01-29T09:12:26.709Z,-0.78
2023-01-29T09:14:55.294Z,-0.77
2023-01-29T09:17:23.786Z,-0.76
2023-01-29T09:19:54.452Z,-0.75
2023-01-29T09:22:23.698Z,-0.75
2023-01-29T09:24:59.457Z,-0.74
2023-01-29T09:27:29.595Z,-0.73
2023-01-29T09:30:02.147Z,-0.70
2023-01-29T09:35:20.217Z,-0.67
2023-01-29T09:37:48.918Z,-0.63
2023-01-29T09:40:26.899Z,-0.60
2023-01-29T09:43:03.875Z,-0.61
2023-01-29T09:45:40.408Z,-0.58
2023-01-29T09:48:17.758Z,-0.55
2023-01-29T09:50:56.491Z,-0.52
2023-01-29T09:53:30.787Z,-0.49
2023-01-29T09:56:05.196Z,-0.46
2023-01-29T09:58:40.637Z,-0.46
2023-01-29T10:01:18.835Z,-0.44
2023-01-29T10:04:15.191Z,-0.40
2023-01-29T10:06:59.494Z,-0.38
2023-01-29T10:09:58.274Z,-0.32
2023-01-29T10:12:47.193Z,-0.26
2023-01-29T10:15:29.521Z,-0.20
2023-01-29T10:18:17.548Z,-0.16
2023-01-29T10:21:04.547Z,-0.11
2023-01-29T10:23:39.659Z,-0.08
2023-01-29T10:26:13.206Z,-0.04
2023-01-29T10:28:46.697Z,0.01
2023-01-29T10:31:20.858Z,0.04
2023-01-29T10:34:02.113Z,0.07
2023-01-29T10:36:37.657Z,0.10
2023-01-29T10:39:09.505Z,0.12
2023-01-29T10:42:01.229Z,0.15
2023-01-29T10:44:40.675Z,0.18
2023-01-29T10:47:30.561Z,0.21
2023-01-29T10:50:24.153Z,0.25
2023-01-29T10:53:18.042Z,0.29
2023-01-29T10:56:01.258Z,0.33
2023-01-29T10:58:38.169Z,0.36
2023-01-29T11:01:07.017Z,0.39
2023-01-29T11:03:37.390Z,0.41
2023-01-29T11:06:13.956Z,0.44
2023-01-29T11:08:48.080Z,0.45
2023-01-29T11:11:19.077Z,0.50
2023-01-29T11:13:54.181Z,0.51
2023-01-29T11:16:28.944Z,0.54
2023-01-29T11:19:02.902Z,0.55
2023-01-29T11:21:31.672Z,0.56
2023-01-29T11:24:08.122Z,0.57
2023-01-29T11:26:40.865Z,0.59
2023-01-29T11:29:33.033Z,0.62
2023-01-29T11:32:05.455Z,0.66
2023-01-29T11:34:35.791Z,0.68
2023-01-29T11:37:07.085Z,0.69
2023-01-29T11:39:36.704Z,0.70
2023-01-29T11:42:08.540Z,0.69
2023-01-29T11:44:43.766Z,0.68
2023-01-29T11:47:18.359Z,0.66
2023-01-29T11:49:51.563Z,0.68
2023-01-29T11:52:26.018Z,0.68
2023-01-29T11:54:57.112Z,0.70
2023-01-29T11:57:32.642Z,0.69
2023-01-29T12:00:06.962Z,0.68
2023-01-29T12:02:43.367Z,0.69
2023-01-29T12:05:26.414Z,0.71
2023-01-29T12:08:00.109Z,0.73
2023-01-29T12:10:38.522Z,0.75
2023-01-29T12:13:20.650Z,0.76
2023-01-29T12:15:54.831Z,0.79
2023-01-29T12:18:35.041Z,0.80
2023-01-29T12:21:06.981Z,0.80
2023-01-29T12:23:43.042Z,0.82
2023-01-29T12:26:16.299Z,0.84
2023-01-29T12:28:54.383Z,0.85
2023-01-29T12:31:36.204Z,0.87
2023-01-29T12:34:15.983Z,0.88
2023-01-29T12:36:56.004Z,0.90
2023-01-29T12:39:25.135Z,0.91
2023-01-29T12:42:00.520Z,0.91
2023-01-29T12:44:35.793Z,0.91
2023-01-29T12:47:09.759Z,0.94
2023-01-29T12:49:40.821Z,0.96
2023-01-29T12:52:14.985Z,0.98
2023-01-29T12:54:51.250Z,1.01
2023-01-29T12:57:27.439Z,1.00
2023-01-29T13:00:05.204Z,1.00
2023-01-29T13:02:39.881Z,1.01
2023-01-29T13:05:23.835Z,1.02
2023-01-29T13:08:00.110Z,1.02
2023-01-29T13:10:34.906Z,1.05
2023-01-29T13:13:06.438Z,1.05
2023-01-29T13:15:40.214Z,1.06
2023-01-29T13:18:37.689Z,1.07
2023-01-29T13:21:07.832Z,1.09
2023-01-29T13:23:48.518Z,1.10
2023-01-29T13:26:20.875Z,1.12
2023-01-29T13:28:51.104Z,1.14
2023-01-29T13:31:28.876Z,1.13
2023-01-29T13:34:05.991Z,1.15
2023-01-29T13:36:35.848Z,1.16
2023-01-29T13:39:08.441Z,1.17
2023-01-29T13:41:46.110Z,1.18
2023-01-29T13:44:27.638Z,1.20
2023-01-29T13:47:05.949Z,1.21
2023-01-29T13:49:41.328Z,1.22
2023-01-29T13:52:31.485Z,1.23
2023-01-29T13:55:06.084Z,1.24
2023-01-29T13:57:56.252Z,1.27
2023-01-29T14:01:01.740Z,1.28
2023-01-29T14:04:04.837Z,1.29
2023-01-29T14:06:50.871Z,1.30
2023-01-29T14:09:56.983Z,1.31
2023-01-29T14:12:45.636Z,1.34
2023-01-29T14:15:28.970Z,1.34
2023-01-29T14:18:20.879Z,1.35
2023-01-29T14:21:01.045Z,1.35
2023-01-29T14:23:35.940Z,1.35
2023-01-29T14:26:07.535Z,1.36
2023-01-29T14:28:38.875Z,1.35
2023-01-29T14:31:07.827Z,1.36
2023-01-29T14:33:41.697Z,1.36
2023-01-29T14:36:15.201Z,1.37
2023-01-29T14:38:53.449Z,1.37
2023-01-29T14:41:28.534Z,1.38
2023-01-29T14:44:15.097Z,1.37
2023-01-29T14:46:47.351Z,1.39
2023-01-29T14:49:52.638Z,1.39
2023-01-29T14:52:25.031Z,1.39
2023-01-29T14:54:59.985Z,1.40
2023-01-29T14:57:31.469Z,1.41
2023-01-29T15:00:05.638Z,1.42
2023-01-29T15:02:42.057Z,1.43
2023-01-29T15:05:18.101Z,1.43
2023-01-29T15:07:56.178Z,1.43
2023-01-29T15:10:36.927Z,1.44
2023-01-29T15:13:16.371Z,1.45
2023-01-29T15:15:52.538Z,1.45
2023-01-29T15:18:32.700Z,1.45
2023-01-29T15:21:15.172Z,1.46
2023-01-29T15:23:48.731Z,1.46
2023-01-29T15:26:22.442Z,1.47
2023-01-29T15:29:03.531Z,1.48
2023-01-29T15:31:36.069Z,1.47
2023-01-29T15:34:11.285Z,1.48
2023-01-29T15:36:42.540Z,1.47
2023-01-29T15:39:18.851Z,1.49
2023-01-29T15:41:48.706Z,1.50
2023-01-29T15:44:22.511Z,1.50
2023-01-29T15:46:57.766Z,1.50
2023-01-29T15:49:34.181Z,1.51
2023-01-29T15:52:08.996Z,1.53
2023-01-29T15:54:37.433Z,1.51
2023-01-29T15:57:10.929Z,1.53
2023-01-29T15:59:46.259Z,1.56
2023-01-29T16:02:30.875Z,1.54
2023-01-29T16:05:09.276Z,1.54
2023-01-29T16:07:56.510Z,1.56
2023-01-29T16:10:35.015Z,1.56
2023-01-29T16:13:18.931Z,1.57
2023-01-29T16:16:09.183Z,1.60
2023-01-29T16:18:58.982Z,1.60
2023-01-29T16:21:35.999Z,1.61
2023-01-29T16:24:09.805Z,1.64
2023-01-29T16:26:43.557Z,1.63
2023-01-29T16:29:20.066Z,1.63
2023-01-29T16:32:01.920Z,1.64
2023-01-29T16:34:33.715Z,1.66
2023-01-29T16:37:06.855Z,1.65
2023-01-29T16:39:44.578Z,1.67
2023-01-29T16:42:29.898Z,1.68
2023-01-29T16:45:02.247Z,1.70
2023-01-29T16:47:34.258Z,1.70
2023-01-29T16:50:05.753Z,1.71
2023-01-29T16:52:40.166Z,1.72
2023-01-29T16:55:22.001Z,1.74
2023-01-29T16:57:54.643Z,1.75
2023-01-29T17:00:26.915Z,1.78
2023-01-29T17:03:00.492Z,1.78
2023-01-29T17:05:32.525Z,1.79
2023-01-29T17:08:03.158Z,1.80
2023-01-29T17:10:34.710Z,1.82
2023-01-29T17:13:08.776Z,1.83
2023-01-29T17:15:45.818Z,1.85
2023-01-29T17:18:19.862Z,1.85
2023-01-29T17:20:48.661Z,1.85
2023-01-29T17:23:19.799Z,1.88
2023-01-29T17:25:48.643Z,1.88
2023-01-29T17:28:18.779Z,1.89
2023-01-29T17:31:00.331Z,1.90
2023-01-29T17:33:34.768Z,1.91
2023-01-29T17:36:03.257Z,1.92
2023-01-29T17:38:33.083Z,1.93
2023-01-29T17:41:06.975Z,1.92
2023-01-29T17:43:35.676Z,1.94
2023-01-29T17:46:07.198Z,1.94
2023-01-29T17:48:35.807Z,1.96
2023-01-29T17:51:05.498Z,1.96
2023-01-29T17:53:50.357Z,1.97
2023-01-29T17:56:21.418Z,1.98
2023-01-29T17:58:50.029Z,1.99
2023-01-29T18:01:18.501Z,2.00
2023-01-29T18:03:46.910Z,1.99
2023-01-29T18:06:23.195Z,2.01
2023-01-29T18:08:53.055Z,2.01
2023-01-29T18:11:22.070Z,2.02
2023-01-29T18:13:50.645Z,2.03
2023-01-29T18:16:21.999Z,2.03
2023-01-29T18:18:51.241Z,2.03
2023-01-29T18:21:20.174Z,2.05
2023-01-29T18:23:48.692Z,2.04
2023-01-29T18:26:18.570Z,2.05
2023-01-29T18:28:47.208Z,2.06
2023-01-29T18:31:15.701Z,2.05
2023-01-29T18:33:44.166Z,2.05
2023-01-29T18:36:12.715Z,2.07
2023-01-29T18:38:41.187Z,2.05
2023-01-29T18:41:11.601Z,2.06
2023-01-29T18:43:43.068Z,2.06
2023-01-29T18:46:11.937Z,2.07
2023-01-29T18:48:42.354Z,2.05
2023-01-29T18:51:11.323Z,2.07
2023-01-29T18:53:39.804Z,2.06
2023-01-29T18:56:08.933Z,2.06
2023-01-29T18:58:52.068Z,2.06
2023-01-29T19:01:24.278Z,2.06
2023-01-29T19:03:52.924Z,2.07
2023-01-29T19:06:21.518Z,2.07
2023-01-29T19:08:49.927Z,2.07
2023-01-29T19:11:18.418Z,2.07
2023-01-29T19:13:56.260Z,2.08
2023-01-29T19:16:24.915Z,2.07
2023-01-29T19:18:55.924Z,2.08
2023-01-29T19:21:24.639Z,2.10
2023-01-29T19:23:58.957Z,2.09
2023-01-29T19:26:27.487Z,2.10
2023-01-29T19:28:57.313Z,2.09
2023-01-29T19:31:25.856Z,2.09
2023-01-29T19:33:54.322Z,2.09
2023-01-29T19:36:22.925Z,2.08
2023-01-29T19:38:51.714Z,2.07
2023-01-29T19:41:20.202Z,2.09
2023-01-29T19:43:51.646Z,2.08
2023-01-29T19:46:21.578Z,2.09
2023-01-29T19:48:50.573Z,2.08
2023-01-29T19:51:29.253Z,2.09
2023-01-29T19:53:58.329Z,2.09
2023-01-29T19:56:26.858Z,2.09
2023-01-29T19:59:03.731Z,2.09
2023-01-29T20:01:34.142Z,2.10
2023-01-29T20:04:03.092Z,2.11
2023-01-29T20:06:32.047Z,2.11
2023-01-29T20:09:02.890Z,2.12
2023-01-29T20:11:31.990Z,2.12
2023-01-29T20:14:00.596Z,2.12
2023-01-29T20:16:29.209Z,2.12
2023-01-29T20:19:14.269Z,2.13
2023-01-29T20:21:51.600Z,2.14
2023-01-29T20:24:27.113Z,2.14
2023-01-29T20:26:57.308Z,2.13
2023-01-29T20:29:25.974Z,2.13
2023-01-29T20:31:54.491Z,2.12
2023-01-29T20:34:24.871Z,2.11
2023-01-29T20:36:53.272Z,2.10
2023-01-29T20:39:21.681Z,2.10
2023-01-29T20:41:50.127Z,2.11
2023-01-29T20:44:19.123Z,2.11
2023-01-29T20:46:47.825Z,2.11
2023-01-29T20:49:17.294Z,2.10
2023-01-29T20:51:47.391Z,2.10
2023-01-29T20:54:15.844Z,2.10
2023-01-29T20:56:44.958Z,2.12
2023-01-29T20:59:14.679Z,2.12
2023-01-29T21:01:55.059Z,2.12
2023-01-29T21:04:23.883Z,2.13
2023-01-29T21:07:03.521Z,2.14
2023-01-29T21:09:34.659Z,2.15
2023-01-29T21:12:07.159Z,2.15
2023-01-29T21:14:39.868Z,2.16
2023-01-29T21:17:08.383Z,2.17
2023-01-29T21:19:36.775Z,2.18
2023-01-29T21:22:06.727Z,2.18
2023-01-29T21:24:35.408Z,2.20
2023-01-29T21:27:04.163Z,2.21
2023-01-29T21:29:32.628Z,2.22
2023-01-29T21:32:01.252Z,2.24
2023-01-29T21:34:29.742Z,2.25
2023-01-29T21:36:58.245Z,2.25
2023-01-29T21:39:28.351Z,2.27
2023-01-29T21:42:17.197Z,2.29
2023-01-29T21:44:45.709Z,2.30
2023-01-29T21:47:14.338Z,2.31
2023-01-29T21:49:44.165Z,2.32
2023-01-29T21:52:14.045Z,2.34
2023-01-29T21:54:48.887Z,2.35
2023-01-29T21:57:21.231Z,2.37
2023-01-29T21:59:53.280Z,2.39
2023-01-29T22:02:22.977Z,2.42
2023-01-29T22:04:52.318Z,2.45
2023-01-29T22:07:20.813Z,2.48
2023-01-29T22:09:51.196Z,2.50
2023-01-29T22:12:22.383Z,2.52
2023-01-29T22:14:50.861Z,2.56
2023-01-29T22:17:20.245Z,2.59
2023-01-29T22:19:49.079Z,2.60
2023-01-29T22:22:19.697Z,2.65
2023-01-29T22:24:48.081Z,2.66
2023-01-29T22:27:17.915Z,2.68
2023-01-29T22:29:46.374Z,2.71
2023-01-29T22:32:14.882Z,2.73
2023-01-29T22:34:43.329Z,2.75
2023-01-29T22:37:11.751Z,2.77
2023-01-29T22:39:40.126Z,2.80
2023-01-29T22:42:09.005Z,2.83
2023-01-29T22:44:38.792Z,2.85
2023-01-29T22:47:07.188Z,2.87
2023-01-29T22:49:35.601Z,2.87
2023-01-29T22:52:12.856Z,2.89
2023-01-29T22:54:42.323Z,2.91
2023-01-29T22:57:11.999Z,2.92
2023-01-29T22:59:43.455Z,2.93
2023-01-29T23:02:11.890Z,2.94
2023-01-29T23:04:40.316Z,2.96
2023-01-29T23:07:11.965Z,2.95
2023-01-29T23:09:40.317Z,2.96
2023-01-29T23:12:08.951Z,2.98
2023-01-29T23:14:37.482Z,2.97
2023-01-29T23:17:07.258Z,2.98
2023-01-29T23:19:38.491Z,2.98
2023-01-29T23:22:06.929Z,2.98
2023-01-29T23:24:35.366Z,2.99
2023-01-29T23:27:16.714Z,2.99
2023-01-29T23:29:46.525Z,3.00
2023-01-29T23:32:21.761Z,3.01
2023-01-29T23:34:50.210Z,3.03
2023-01-29T23:37:18.622Z,3.02
2023-01-29T23:39:46.986Z,3.04
2023-01-29T23:42:15.411Z,3.05
2023-01-29T23:44:43.900Z,3.06
2023-01-29T23:47:13.591Z,3.08
2023-01-29T23:49:43.363Z,3.08
2023-01-29T23:52:11.748Z,3.09
2023-01-29T23:54:40.142Z,3.10
2023-01-29T23:57:10.340Z,3.14
2023-01-29T23:59:38.845Z,3.15
